Time;durP1;ratioP1;P1;durP2;ratioP2;P2;SDS_P1;SDS_P2;PMS_P1;PMS_P2;Temp;Humidity;BMP_temperature;BMP_pressure;BME280_temperature;BME280_humidity;BME280_pressure;Samples;Min_cycle;Max_cycle;Signal;HPM_P1;HPM_P2
2021/08/02 00:02:29;;;;;;;3.70;3.40;;;17.70;99.90;;;;;;5051158;28;20438;-52
2021/08/02 00:05:02;;;;;;;4.33;3.93;;;17.60;99.90;;;;;;5051112;28;20496;-52
2021/08/02 00:07:29;;;;;;;4.50;4.10;;;17.60;99.90;;;;;;5050970;28;20414;-52
2021/08/02 00:10:06;;;;;;;4.53;3.50;;;17.60;99.90;;;;;;5050534;28;20427;-52
2021/08/02 00:12:40;;;;;;;5.20;3.37;;;17.60;99.90;;;;;;5050929;28;20834;-51
2021/08/02 00:15:09;;;;;;;5.50;4.03;;;17.50;99.90;;;;;;5050786;28;20442;-51
2021/08/02 00:17:38;;;;;;;5.20;3.60;;;17.60;99.90;;;;;;5050874;28;20442;-52
2021/08/02 00:20:06;;;;;;;5.40;4.53;;;17.60;99.90;;;;;;5050506;28;20542;-51
2021/08/02 00:22:33;;;;;;;4.00;3.47;;;17.50;99.90;;;;;;5050654;28;20577;-51
2021/08/02 00:25:00;;;;;;;4.20;3.80;;;17.50;99.90;;;;;;5050869;28;20906;-52
2021/08/02 00:27:26;;;;;;;6.77;3.87;;;17.50;99.90;;;;;;5050957;28;20465;-51
2021/08/02 00:29:55;;;;;;;4.00;3.70;;;17.50;99.90;;;;;;5050395;28;20424;-52
2021/08/02 00:32:22;;;;;;;3.93;3.40;;;17.60;99.90;;;;;;5032454;28;20985;-52
2021/08/02 00:34:48;;;;;;;4.27;3.87;;;17.60;99.90;;;;;;5032706;28;20452;-51
2021/08/02 00:37:22;;;;;;;4.60;4.20;;;17.60;99.90;;;;;;5050522;28;20439;-51
2021/08/02 00:39:57;;;;;;;4.23;3.53;;;17.50;99.90;;;;;;5050313;28;20462;-50
2021/08/02 00:42:56;;;;;;;4.67;4.27;;;17.90;99.90;;;;;;5050568;28;20794;-52
2021/08/02 00:45:31;;;;;;;5.10;3.20;;;17.70;99.90;;;;;;5050679;28;20827;-51
2021/08/02 00:48:03;;;;;;;4.77;3.70;;;17.70;99.90;;;;;;5050583;28;20838;-51
2021/08/02 00:50:33;;;;;;;6.47;3.70;;;17.60;99.90;;;;;;5032338;28;20541;-51
2021/08/02 00:53:04;;;;;;;4.60;3.77;;;17.60;99.90;;;;;;5050541;28;20878;-51
2021/08/02 00:55:35;;;;;;;4.00;3.60;;;17.70;99.90;;;;;;5032903;28;20446;-52
2021/08/02 00:58:05;;;;;;;3.60;3.30;;;17.70;99.90;;;;;;5050939;28;20468;-51
2021/08/02 01:00:34;;;;;;;3.80;3.50;;;17.60;99.90;;;;;;5032513;28;20485;-52
2021/08/02 01:03:05;;;;;;;4.30;3.93;;;17.70;99.90;;;;;;5050853;28;20498;-53
2021/08/02 01:05:36;;;;;;;5.33;4.50;;;17.70;99.90;;;;;;5050871;28;21041;-52
2021/08/02 01:08:08;;;;;;;4.77;4.27;;;17.50;99.90;;;;;;5052287;28;20864;-52
2021/08/02 01:10:37;;;;;;;4.50;4.10;;;17.70;99.90;;;;;;5036651;28;20438;-51
2021/08/02 01:13:11;;;;;;;3.80;3.50;;;17.90;99.90;;;;;;5036591;28;20485;-52
2021/08/02 01:15:41;;;;;;;5.20;4.17;;;17.70;99.90;;;;;;5054700;28;20435;-52
2021/08/02 01:18:12;;;;;;;4.27;3.90;;;17.70;99.90;;;;;;5053971;28;20890;-52
2021/08/02 01:20:43;;;;;;;6.00;4.30;;;17.70;99.90;;;;;;5054380;28;20809;-53
2021/08/02 01:23:15;;;;;;;5.30;4.90;;;17.60;99.90;;;;;;5054599;28;20437;-52
2021/08/02 01:26:18;;;;;;;7.80;5.13;;;17.60;99.90;;;;;;5054525;28;20446;-52
2021/08/02 01:29:22;;;;;;;4.57;4.17;;;17.70;99.90;;;;;;5054265;28;20456;-52
2021/08/02 01:31:48;;;;;;;5.47;4.83;;;17.70;99.90;;;;;;5053950;28;20443;-52
2021/08/02 01:34:19;;;;;;;4.50;4.10;;;17.70;99.90;;;;;;5036158;28;20448;-52
2021/08/02 01:36:46;;;;;;;4.50;4.10;;;17.60;99.90;;;;;;5054041;28;20460;-52
2021/08/02 01:39:14;;;;;;;6.53;4.70;;;17.60;99.90;;;;;;5053696;28;20452;-52
2021/08/02 01:41:42;;;;;;;4.57;4.17;;;17.60;99.90;;;;;;5036241;28;21003;-52
2021/08/02 01:44:09;;;;;;;4.90;4.50;;;17.60;99.90;;;;;;5036163;28;20967;-52
2021/08/02 01:46:44;;;;;;;6.70;5.30;;;17.60;99.90;;;;;;5054039;28;20445;-52
2021/08/02 01:49:17;;;;;;;4.07;3.67;;;17.60;99.90;;;;;;5035832;28;20467;-52
2021/08/02 01:51:49;;;;;;;5.70;4.00;;;17.60;99.90;;;;;;5053931;28;20447;-52
2021/08/02 01:54:29;;;;;;;4.20;3.80;;;17.60;99.90;;;;;;5054070;28;20438;-52
2021/08/02 01:57:02;;;;;;;5.70;4.00;;;17.60;99.90;;;;;;5053762;28;20435;-50
2021/08/02 01:59:39;;;;;;;4.90;3.67;;;17.60;99.90;;;;;;5035471;28;20806;-51
2021/08/02 02:02:09;;;;;;;3.43;3.13;;;17.60;99.90;;;;;;5035747;28;20448;-50
2021/08/02 02:04:40;;;;;;;4.37;4.07;;;17.60;99.90;;;;;;5053397;28;20928;-51
2021/08/02 02:07:12;;;;;;;5.30;3.80;;;17.70;99.90;;;;;;5035636;28;20571;-52
2021/08/02 02:09:55;;;;;;;5.63;3.73;;;17.70;99.90;;;;;;5036447;28;20495;-50
2021/08/02 02:12:22;;;;;;;4.93;3.67;;;17.60;99.90;;;;;;5035638;28;20479;-50
2021/08/02 02:14:55;;;;;;;4.93;3.70;;;17.60;99.90;;;;;;5052556;28;20428;-51
2021/08/02 02:17:25;;;;;;;3.47;3.17;;;17.70;99.90;;;;;;5034496;28;20464;-50
2021/08/02 02:19:54;;;;;;;4.80;3.10;;;17.70;99.90;;;;;;5052673;28;20988;-50
2021/08/02 02:22:24;;;;;;;5.13;3.20;;;17.70;99.90;;;;;;5035305;28;20451;-50
2021/08/02 02:24:53;;;;;;;4.37;3.00;;;17.70;99.90;;;;;;5053146;28;20462;-51
2021/08/02 02:27:21;;;;;;;4.10;2.80;;;17.70;99.90;;;;;;5035491;28;20450;-50
2021/08/02 02:29:56;;;;;;;4.60;3.27;;;17.60;99.90;;;;;;5034781;28;20509;-49
2021/08/02 02:32:27;;;;;;;3.90;2.50;;;17.70;99.90;;;;;;5035160;28;20531;-50
2021/08/02 02:34:55;;;;;;;3.47;2.70;;;17.60;99.90;;;;;;5035006;28;20451;-50
2021/08/02 02:37:25;;;;;;;3.83;3.20;;;17.60;99.90;;;;;;5052950;28;20430;-50
2021/08/02 02:39:56;;;;;;;8.10;2.90;;;17.60;99.90;;;;;;5034745;28;20444;-51
2021/08/02 02:42:25;;;;;;;4.40;3.07;;;17.60;99.90;;;;;;5053136;28;20447;-51
2021/08/02 02:44:53;;;;;;;3.20;2.57;;;17.60;99.90;;;;;;5034868;28;20822;-50
2021/08/02 02:47:23;;;;;;;3.90;3.27;;;17.60;99.90;;;;;;5034963;28;20777;-50
2021/08/02 02:49:51;;;;;;;3.90;3.60;;;17.60;99.90;;;;;;5034376;28;20516;-51
2021/08/02 02:52:18;;;;;;;5.73;3.23;;;17.60;99.90;;;;;;5034648;28;20451;-50
2021/08/02 02:54:48;;;;;;;2.87;2.60;;;17.50;99.90;;;;;;5052467;28;20452;-50
2021/08/02 02:57:18;;;;;;;5.10;2.63;;;17.40;99.90;;;;;;5034879;28;20456;-49
2021/08/02 02:59:46;;;;;;;4.20;2.47;;;17.60;99.90;;;;;;5034231;28;20510;-52
2021/08/02 03:02:14;;;;;;;4.30;2.60;;;17.40;99.90;;;;;;5034424;28;21002;-50
2021/08/02 03:04:45;;;;;;;3.93;3.10;;;17.60;99.90;;;;;;5034533;28;20451;-50
2021/08/02 03:07:14;;;;;;;4.10;3.00;;;17.60;99.90;;;;;;5034308;28;20956;-51
2021/08/02 03:09:47;;;;;;;5.40;3.27;;;17.60;99.90;;;;;;5052083;28;20542;-50
2021/08/02 03:12:16;;;;;;;6.43;2.87;;;17.60;99.90;;;;;;5052318;28;20885;-51
2021/08/02 03:14:44;;;;;;;4.07;3.07;;;17.50;99.90;;;;;;5052135;28;20433;-50
2021/08/02 03:17:11;;;;;;;5.20;3.80;;;17.50;99.90;;;;;;5052215;28;20444;-50
2021/08/02 03:19:39;;;;;;;6.60;4.60;;;17.50;99.90;;;;;;5033813;28;20474;-49
2021/08/02 03:22:22;;;;;;;4.30;3.40;;;17.50;99.90;;;;;;5052962;28;20533;-50
2021/08/02 03:24:57;;;;;;;3.90;3.43;;;17.50;99.90;;;;;;5052166;28;20435;-50
2021/08/02 03:27:29;;;;;;;5.40;3.90;;;17.50;99.90;;;;;;5052128;28;20872;-50
2021/08/02 03:30:01;;;;;;;4.40;3.43;;;17.50;99.90;;;;;;5051057;28;20435;-50
2021/08/02 03:32:29;;;;;;;5.03;3.60;;;17.50;99.90;;;;;;5051719;28;20445;-50
2021/08/02 03:35:02;;;;;;;5.77;3.50;;;17.50;99.90;;;;;;5051634;28;20808;-51
2021/08/02 03:37:29;;;;;;;5.90;3.53;;;17.50;99.90;;;;;;5051756;28;20432;-51
2021/08/02 03:39:57;;;;;;;3.77;3.47;;;17.50;99.90;;;;;;5051426;28;20440;-52
2021/08/02 03:42:25;;;;;;;4.30;3.60;;;17.50;99.90;;;;;;5051439;28;20881;-49
2021/08/02 03:44:53;;;;;;;4.63;3.40;;;17.50;99.90;;;;;;5051943;28;20525;-49
2021/08/02 03:47:21;;;;;;;5.07;4.40;;;17.40;99.90;;;;;;5051750;28;20440;-50
2021/08/02 03:49:48;;;;;;;3.40;3.10;;;17.40;99.90;;;;;;5051175;28;20457;-50
2021/08/02 03:52:16;;;;;;;4.70;3.70;;;17.40;99.90;;;;;;5051764;28;20443;-51
2021/08/02 03:54:42;;;;;;;5.87;3.17;;;17.40;99.90;;;;;;5051455;28;20483;-50
2021/08/02 03:57:09;;;;;;;4.77;3.47;;;17.40;99.90;;;;;;5051374;28;20433;-50
2021/08/02 03:59:36;;;;;;;3.80;3.40;;;17.40;99.90;;;;;;5051362;28;20464;-50
2021/08/02 04:02:03;;;;;;;5.20;3.90;;;17.40;99.90;;;;;;5033788;28;20993;-50
2021/08/02 04:04:31;;;;;;;4.00;3.27;;;17.40;99.90;;;;;;5033476;28;20479;-50
2021/08/02 04:06:57;;;;;;;6.70;3.60;;;17.40;99.90;;;;;;5051494;28;20441;-50
2021/08/02 04:09:24;;;;;;;8.93;4.17;;;17.40;99.90;;;;;;5050821;28;20461;-51
2021/08/02 04:11:51;;;;;;;5.00;3.80;;;17.40;99.90;;;;;;5051306;28;20462;-51
2021/08/02 04:14:18;;;;;;;4.13;3.73;;;17.50;99.90;;;;;;5051482;28;20528;-51
2021/08/02 04:16:45;;;;;;;4.27;3.30;;;17.50;99.90;;;;;;5051216;28;20734;-50
2021/08/02 04:19:12;;;;;;;4.60;2.77;;;17.50;99.90;;;;;;5033166;28;20481;-50
2021/08/02 04:21:40;;;;;;;5.47;2.83;;;17.50;99.90;;;;;;5033000;28;20512;-51
2021/08/02 04:24:07;;;;;;;3.40;2.97;;;17.50;99.90;;;;;;5050968;28;20838;-50
2021/08/02 04:26:34;;;;;;;3.73;3.23;;;17.50;99.90;;;;;;5051473;28;20442;-50
2021/08/02 04:29:00;;;;;;;7.43;3.20;;;17.50;99.90;;;;;;5050734;28;20513;-51
2021/08/02 04:31:30;;;;;;;5.07;4.00;;;17.50;99.90;;;;;;5051247;28;20430;-51
2021/08/02 04:33:58;;;;;;;7.30;3.60;;;17.60;99.90;;;;;;5051019;28;20563;-51
2021/08/02 04:36:25;;;;;;;4.73;3.83;;;17.60;99.90;;;;;;5051249;28;20431;-51
2021/08/02 04:38:53;;;;;;;3.33;3.00;;;17.60;99.90;;;;;;5050381;28;20461;-51
2021/08/02 04:41:20;;;;;;;5.30;3.20;;;17.60;99.90;;;;;;5051200;28;20496;-51
2021/08/02 04:43:47;;;;;;;7.07;3.00;;;17.60;99.90;;;;;;5054847;28;20892;-51
2021/08/02 04:46:14;;;;;;;5.30;2.70;;;17.70;99.90;;;;;;5054807;28;20534;-51
2021/08/02 04:48:41;;;;;;;4.20;2.97;;;17.70;99.90;;;;;;5054224;28;20463;-51
2021/08/02 04:51:08;;;;;;;5.07;2.83;;;17.70;99.90;;;;;;5036562;28;20526;-51
2021/08/02 04:53:35;;;;;;;4.90;3.00;;;17.70;99.90;;;;;;5054894;28;20478;-51
2021/08/02 04:56:03;;;;;;;4.23;2.87;;;17.80;99.90;;;;;;5054522;28;20428;-50
2021/08/02 04:58:30;;;;;;;7.60;2.40;;;17.80;99.90;;;;;;5074325;22;20590;-53
2021/08/02 05:00:56;;;;;;;7.73;3.20;;;17.80;99.90;;;;;;5074317;28;20441;-52
2021/08/02 05:03:23;;;;;;;6.17;2.47;;;17.80;99.90;;;;;;5074227;28;20432;-52
2021/08/02 05:05:52;;;;;;;6.47;2.73;;;17.80;99.90;;;;;;5074089;28;20434;-52
2021/08/02 05:08:19;;;;;;;3.97;2.57;;;17.80;99.90;;;;;;5073742;28;20806;-52
2021/08/02 05:10:46;;;;;;;6.63;2.90;;;17.80;99.90;;;;;;5074086;28;20433;-53
2021/08/02 05:13:14;;;;;;;22.90;3.50;;;17.80;99.90;;;;;;5073864;28;20991;-53
2021/08/02 05:15:40;;;;;;;3.40;3.00;;;17.90;99.90;;;;;;5073906;28;20528;-53
2021/08/02 05:18:07;;;;;;;3.83;2.50;;;18.00;99.90;;;;;;5073752;28;20451;-52
2021/08/02 05:20:34;;;;;;;5.23;3.60;;;18.10;99.90;;;;;;5073782;28;20431;-53
2021/08/02 05:23:00;;;;;;;7.70;3.80;;;18.30;99.90;;;;;;5073839;28;20936;-52
2021/08/02 05:25:27;;;;;;;7.10;3.07;;;18.40;99.90;;;;;;5073705;28;20463;-52
2021/08/02 05:27:54;;;;;;;5.43;3.17;;;18.60;99.90;;;;;;5073739;28;20918;-52
2021/08/02 05:30:22;;;;;;;5.80;3.80;;;18.60;99.90;;;;;;5073301;28;20446;-52
2021/08/02 05:32:49;;;;;;;6.73;3.20;;;18.70;99.90;;;;;;5073515;28;20930;-52
2021/08/02 05:35:16;;;;;;;4.70;3.83;;;18.90;99.90;;;;;;5073485;28;20483;-53
2021/08/02 05:37:43;;;;;;;3.80;2.90;;;18.90;99.90;;;;;;5073556;28;20424;-52
2021/08/02 05:40:11;;;;;;;3.60;2.77;;;18.90;99.90;;;;;;5072923;28;20432;-52
2021/08/02 05:42:37;;;;;;;4.37;3.40;;;18.80;99.90;;;;;;5073304;28;20437;-51
2021/08/02 05:45:06;;;;;;;6.30;3.20;;;18.90;99.90;;;;;;5073456;28;20786;-52
2021/08/02 05:47:34;;;;;;;6.50;3.20;;;18.90;99.90;;;;;;5073173;28;20905;-52
2021/08/02 05:50:00;;;;;;;5.33;2.83;;;18.90;99.90;;;;;;5072862;28;20462;-52
2021/08/02 05:52:27;;;;;;;5.40;3.30;;;18.90;99.90;;;;;;5073070;28;20435;-51
2021/08/02 05:54:54;;;;;;;4.77;3.53;;;19.00;99.90;;;;;;5054228;28;20530;-52
2021/08/02 05:57:21;;;;;;;14.50;3.70;;;19.10;99.90;;;;;;5055094;28;20449;-52
2021/08/02 05:59:48;;;;;;;6.67;3.30;;;19.20;99.90;;;;;;5072717;28;21046;-53
2021/08/02 06:02:15;;;;;;;5.10;3.17;;;19.30;99.90;;;;;;5072934;28;20432;-53
2021/08/02 06:04:43;;;;;;;4.53;2.80;;;19.30;99.90;;;;;;5073837;28;20467;-53
2021/08/02 06:07:10;;;;;;;4.30;2.87;;;19.40;99.90;;;;;;5072828;28;20527;-55
2021/08/02 06:09:36;;;;;;;4.83;2.87;;;19.50;99.90;;;;;;5072387;28;20845;-53
2021/08/02 06:12:03;;;;;;;10.50;2.80;;;19.50;99.90;;;;;;5072537;28;20956;-53
2021/08/02 06:14:30;;;;;;;7.57;3.50;;;19.50;99.90;;;;;;5072968;28;20964;-53
2021/08/02 06:16:57;;;;;;;7.83;2.77;;;19.50;99.90;;;;;;5072765;28;20949;-53
2021/08/02 06:19:23;;;;;;;10.40;3.40;;;19.70;99.90;;;;;;5054006;28;20944;-53
2021/08/02 06:21:51;;;;;;;4.37;2.93;;;19.90;99.90;;;;;;5072468;28;20544;-54
2021/08/02 06:24:18;;;;;;;4.07;3.67;;;19.90;99.90;;;;;;5072057;28;20433;-53
2021/08/02 06:26:45;;;;;;;6.00;3.47;;;20.30;99.90;;;;;;5072663;28;20428;-53
2021/08/02 06:29:11;;;;;;;3.63;2.57;;;20.40;99.90;;;;;;5071742;28;20473;-52
2021/08/02 06:31:38;;;;;;;5.10;2.67;;;20.40;99.90;;;;;;5072090;28;20537;-52
2021/08/02 06:34:05;;;;;;;5.63;2.60;;;20.20;99.90;;;;;;5072155;28;20602;-51
2021/08/02 06:36:32;;;;;;;4.63;2.30;;;20.10;99.90;;;;;;5072201;28;20440;-53
2021/08/02 06:39:00;;;;;;;3.70;2.83;;;19.90;99.90;;;;;;5072053;28;20464;-52
2021/08/02 06:41:26;;;;;;;4.87;2.93;;;20.00;99.90;;;;;;5072145;28;20795;-53
2021/08/02 06:43:53;;;;;;;5.97;2.77;;;20.10;99.90;;;;;;5071820;28;20451;-53
2021/08/02 06:46:20;;;;;;;4.17;3.50;;;20.10;99.90;;;;;;5072098;28;20433;-53
2021/08/02 06:48:46;;;;;;;6.77;2.87;;;20.00;99.90;;;;;;5071534;28;20460;-53
2021/08/02 06:51:14;;;;;;;6.10;5.40;;;20.00;99.90;;;;;;5071855;28;20791;-53
2021/08/02 06:53:40;;;;;;;2.47;2.10;;;20.10;99.90;;;;;;5071742;28;20512;-52
2021/08/02 06:56:08;;;;;;;6.73;2.33;;;20.20;99.90;;;;;;5072206;28;20448;-53
2021/08/02 06:58:35;;;;;;;5.80;2.47;;;20.30;99.90;;;;;;5071057;28;20475;-53
2021/08/02 07:01:02;;;;;;;3.90;1.67;;;20.30;99.90;;;;;;5071779;28;20462;-53
2021/08/02 07:03:28;;;;;;;4.50;1.60;;;20.20;99.90;;;;;;5071593;28;20437;-53
2021/08/02 07:05:55;;;;;;;6.10;2.30;;;20.20;99.90;;;;;;5071406;28;20426;-56
2021/08/02 07:08:22;;;;;;;7.90;6.13;;;20.10;99.90;;;;;;5072654;28;20457;-53
2021/08/02 07:10:48;;;;;;;2.83;1.80;;;20.40;99.90;;;;;;5071595;28;20429;-53
2021/08/02 07:13:16;;;;;;;3.37;1.57;;;20.30;99.70;;;;;;5071102;28;20433;-53
2021/08/02 07:15:44;;;;;;;2.37;1.67;;;20.40;99.60;;;;;;5071703;28;20800;-54
2021/08/02 07:18:11;;;;;;;4.80;2.33;;;20.40;99.40;;;;;;5070907;28;20458;-52
2021/08/02 07:20:39;;;;;;;3.83;2.10;;;20.40;99.10;;;;;;5071220;28;20429;-54
2021/08/02 07:23:06;;;;;;;4.80;1.80;;;20.40;98.80;;;;;;5071604;28;21004;-53
2021/08/02 07:25:32;;;;;;;2.40;1.83;;;20.50;98.60;;;;;;5071620;28;20442;-54
2021/08/02 07:27:59;;;;;;;3.67;1.87;;;20.60;98.20;;;;;;5071353;28;20442;-53
2021/08/02 07:30:27;;;;;;;4.67;1.70;;;20.80;97.90;;;;;;5071460;28;20449;-54
2021/08/02 07:32:54;;;;;;;4.47;2.90;;;21.00;97.50;;;;;;5071046;28;20453;-53
2021/08/02 07:35:20;;;;;;;2.63;1.60;;;21.10;97.30;;;;;;5071311;28;20477;-53
2021/08/02 07:37:47;;;;;;;3.13;1.67;;;21.20;97.30;;;;;;5070640;28;20447;-53
2021/08/02 07:40:14;;;;;;;3.20;1.73;;;21.20;96.80;;;;;;5070813;28;20438;-53
2021/08/02 07:42:41;;;;;;;4.90;2.30;;;21.10;96.60;;;;;;5071139;28;20493;-53
2021/08/02 07:45:09;;;;;;;5.70;1.80;;;21.10;96.60;;;;;;5053080;28;20553;-53
2021/08/02 07:47:37;;;;;;;8.27;2.37;;;21.10;96.50;;;;;;5070945;28;20448;-53
2021/08/02 07:50:04;;;;;;;3.00;1.87;;;20.90;96.50;;;;;;5070885;28;20485;-52
2021/08/02 07:52:31;;;;;;;22.53;4.80;;;20.90;96.50;;;;;;5071096;28;20426;-53
2021/08/02 07:54:58;;;;;;;8.00;1.70;;;20.90;96.20;;;;;;5071179;28;20478;-52
2021/08/02 07:57:25;;;;;;;28.40;6.20;;;20.80;95.70;;;;;;5070894;28;20433;-53
2021/08/02 07:59:52;;;;;;;9.30;2.30;;;20.80;95.60;;;;;;5070359;28;20820;-53
2021/08/02 08:02:18;;;;;;;5.00;2.60;;;20.70;95.30;;;;;;5070886;28;20430;-53
2021/08/02 08:04:46;;;;;;;4.10;2.00;;;20.80;95.30;;;;;;5071172;28;20794;-53
2021/08/02 08:07:13;;;;;;;5.07;1.80;;;20.90;95.30;;;;;;5070881;28;20431;-53
2021/08/02 08:09:40;;;;;;;5.20;1.80;;;20.70;94.90;;;;;;5070781;28;20456;-53
2021/08/02 08:12:08;;;;;;;3.03;1.60;;;21.20;95.10;;;;;;5071203;28;20465;-53
2021/08/02 08:14:35;;;;;;;6.33;2.13;;;21.20;94.90;;;;;;5052785;28;20571;-54
2021/08/02 08:17:02;;;;;;;5.10;2.00;;;21.10;94.70;;;;;;5072769;28;20446;-54
2021/08/02 08:19:28;;;;;;;4.00;1.70;;;21.00;94.50;;;;;;5074721;28;20456;-53
2021/08/02 08:21:56;;;;;;;3.57;2.00;;;20.90;94.60;;;;;;5074877;28;20444;-53
2021/08/02 08:24:35;;;;;;;3.17;2.40;;;20.90;94.00;;;;;;5074763;28;20631;-53
2021/08/02 08:27:02;;;;;;;4.23;1.63;;;20.90;93.60;;;;;;5074779;28;20949;-53
2021/08/02 08:29:28;;;;;;;5.63;2.47;;;20.90;93.60;;;;;;5074490;28;21005;-53
2021/08/02 08:31:55;;;;;;;4.90;2.60;;;20.80;93.60;;;;;;5074725;28;20433;-53
2021/08/02 08:34:21;;;;;;;5.87;1.47;;;20.80;93.50;;;;;;5056548;28;20519;-53
2021/08/02 08:36:48;;;;;;;5.80;1.83;;;20.80;93.30;;;;;;5074412;28;20453;-53
2021/08/02 08:39:16;;;;;;;5.10;1.70;;;20.80;93.00;;;;;;5073784;28;20463;-53
2021/08/02 08:41:44;;;;;;;4.77;1.83;;;20.80;92.70;;;;;;5074664;28;20922;-53
2021/08/02 08:44:11;;;;;;;3.83;1.47;;;20.90;92.30;;;;;;5074900;28;20434;-53
2021/08/02 08:46:38;;;;;;;4.93;1.93;;;20.90;92.10;;;;;;5073964;28;20520;-52
2021/08/02 08:49:05;;;;;;;2.73;1.57;;;21.00;92.30;;;;;;5073995;28;20458;-53
2021/08/02 08:51:33;;;;;;;3.40;1.80;;;21.10;92.50;;;;;;5073961;28;20759;-53
2021/08/02 08:53:59;;;;;;;3.70;1.87;;;21.20;92.30;;;;;;5074574;28;20442;-54
2021/08/02 08:56:27;;;;;;;6.13;1.80;;;21.20;92.20;;;;;;5074094;28;20427;-54
2021/08/02 08:58:54;;;;;;;9.13;2.13;;;21.30;92.00;;;;;;5073944;28;20470;-52
2021/08/02 09:01:27;;;;;;;3.90;1.80;;;21.40;92.10;;;;;;5074230;28;20462;-53
2021/08/02 09:03:55;;;;;;;4.90;1.70;;;21.40;91.70;;;;;;5074552;28;20448;-53
2021/08/02 09:06:21;;;;;;;4.17;2.20;;;21.40;91.60;;;;;;5074200;28;20424;-53
2021/08/02 09:08:49;;;;;;;4.83;1.90;;;21.40;91.70;;;;;;5073610;28;20475;-53
2021/08/02 09:11:19;;;;;;;4.80;2.70;;;21.50;91.40;;;;;;5073942;28;20446;-53
2021/08/02 09:13:49;;;;;;;5.37;1.80;;;21.60;91.00;;;;;;5073677;28;20445;-53
2021/08/02 09:16:17;;;;;;;7.23;2.30;;;21.60;90.70;;;;;;5073672;28;20485;-53
2021/08/02 09:18:56;;;;;;;5.70;1.70;;;21.60;90.80;;;;;;5073772;28;20448;-53
2021/08/02 09:21:23;;;;;;;6.27;1.80;;;21.80;89.30;;;;;;5074141;28;20497;-53
2021/08/02 09:23:51;;;;;;;3.10;1.60;;;21.80;89.70;;;;;;5073637;28;20432;-52
2021/08/02 09:26:29;;;;;;;2.97;1.63;;;22.10;90.00;;;;;;5072941;28;20523;-54
2021/08/02 09:28:57;;;;;;;6.07;1.70;;;22.30;88.00;;;;;;5072279;28;20849;-54
2021/08/02 09:31:33;;;;;;;4.73;2.70;;;22.40;88.00;;;;;;5073883;28;20860;-54
2021/08/02 09:34:02;;;;;;;9.53;2.07;;;22.50;85.90;;;;;;5073916;28;20955;-54
2021/08/02 09:36:41;;;;;;;4.00;2.00;;;22.60;86.80;;;;;;5073283;28;20922;-51
2021/08/02 09:39:09;;;;;;;3.40;1.73;;;22.70;86.40;;;;;;5073314;28;21035;-54
2021/08/02 09:41:36;;;;;;;4.33;2.33;;;22.70;86.00;;;;;;5073334;28;20464;-54
2021/08/02 09:44:05;;;;;;;3.30;1.60;;;22.60;85.40;;;;;;5073200;28;20453;-57
2021/08/02 09:46:31;;;;;;;6.93;2.10;;;22.50;85.50;;;;;;5073295;28;20437;-53
2021/08/02 09:49:02;;;;;;;5.40;2.30;;;22.40;85.40;;;;;;5054483;28;21004;-53
2021/08/02 09:51:40;;;;;;;6.40;2.00;;;22.40;85.40;;;;;;5073604;28;20553;-53
2021/08/02 09:54:07;;;;;;;6.60;1.80;;;22.40;84.80;;;;;;5055299;28;20912;-53
2021/08/02 09:56:36;;;;;;;2.83;1.40;;;22.40;84.80;;;;;;5072930;28;20488;-53
2021/08/02 09:59:06;;;;;;;7.30;2.40;;;22.40;83.50;;;;;;5072531;28;20472;-53
2021/08/02 10:01:33;;;;;;;4.90;1.67;;;22.50;83.70;;;;;;5054819;28;20884;-53
2021/08/02 10:04:00;;;;;;;3.50;1.73;;;22.60;83.40;;;;;;5072380;28;20437;-53
2021/08/02 10:06:27;;;;;;;8.13;1.97;;;22.70;83.50;;;;;;5072692;28;20437;-53
2021/08/02 10:08:55;;;;;;;9.67;2.40;;;22.80;83.40;;;;;;5072394;28;20548;-53
2021/08/02 10:11:22;;;;;;;5.30;3.30;;;22.90;83.60;;;;;;5072622;28;20451;-53
2021/08/02 10:13:50;;;;;;;12.67;3.20;;;23.00;82.50;;;;;;5072665;28;20948;-53
2021/08/02 10:16:19;;;;;;;4.13;2.17;;;23.00;82.30;;;;;;5054098;28;20481;-53
2021/08/02 10:18:51;;;;;;;2.97;1.50;;;23.10;81.90;;;;;;5054180;28;20504;-53
2021/08/02 10:21:19;;;;;;;4.20;1.93;;;23.20;81.20;;;;;;5072762;28;20499;-53
2021/08/02 10:23:46;;;;;;;4.23;1.90;;;23.10;80.60;;;;;;5072653;28;20850;-53
2021/08/02 10:26:21;;;;;;;4.30;2.47;;;23.10;80.10;;;;;;5072391;28;20472;-53
2021/08/02 10:28:55;;;;;;;6.73;1.90;;;23.10;79.50;;;;;;5071597;28;20451;-53
2021/08/02 10:31:26;;;;;;;2.90;1.80;;;23.00;79.30;;;;;;5071964;28;20455;-53
2021/08/02 10:33:53;;;;;;;4.70;1.57;;;23.00;79.40;;;;;;5072504;28;20453;-53
2021/08/02 10:36:22;;;;;;;7.23;1.90;;;23.10;79.40;;;;;;5054177;28;20488;-54
2021/08/02 10:38:51;;;;;;;4.60;1.50;;;23.20;79.20;;;;;;5071680;28;20450;-54
2021/08/02 10:41:25;;;;;;;4.23;1.97;;;23.40;78.50;;;;;;5071896;28;20812;-54
2021/08/02 10:43:53;;;;;;;3.30;1.57;;;23.40;77.90;;;;;;5072042;28;20439;-53
2021/08/02 10:46:21;;;;;;;3.83;1.70;;;23.50;77.10;;;;;;5072027;28;20436;-54
2021/08/02 10:48:52;;;;;;;4.17;2.00;;;23.50;77.00;;;;;;5071593;28;20483;-54
2021/08/02 10:51:20;;;;;;;2.10;1.50;;;23.50;76.80;;;;;;5071981;28;20523;-54
2021/08/02 10:53:57;;;;;;;4.13;1.60;;;23.40;76.60;;;;;;5071697;28;20748;-54
2021/08/02 10:56:25;;;;;;;6.70;1.63;;;23.10;76.20;;;;;;5072128;28;20478;-53
2021/08/02 10:58:53;;;;;;;2.80;1.80;;;23.00;76.80;;;;;;5071299;22;20507;-51
2021/08/02 11:01:23;;;;;;;4.90;2.10;;;22.90;76.80;;;;;;5051983;28;20432;-52
2021/08/02 11:03:52;;;;;;;4.60;1.63;;;22.80;77.20;;;;;;5052257;28;20982;-51
2021/08/02 11:06:18;;;;;;;4.80;1.63;;;22.80;77.40;;;;;;5051421;28;20642;-53
2021/08/02 11:08:48;;;;;;;3.17;1.43;;;22.70;77.30;;;;;;5051371;28;20466;-52
2021/08/02 11:11:24;;;;;;;6.10;1.97;;;22.70;77.50;;;;;;5052243;28;20501;-52
2021/08/02 11:13:51;;;;;;;3.83;2.10;;;22.90;78.00;;;;;;5051733;28;20433;-52
2021/08/02 11:16:19;;;;;;;5.57;1.70;;;22.90;77.10;;;;;;5051630;28;20561;-52
2021/08/02 11:18:46;;;;;;;4.30;1.67;;;23.00;77.40;;;;;;5051539;28;20546;-51
2021/08/02 11:21:25;;;;;;;4.47;1.80;;;23.00;76.90;;;;;;5034369;28;20448;-52
2021/08/02 11:23:54;;;;;;;3.80;1.30;;;23.20;76.80;;;;;;5052343;28;20550;-51
2021/08/02 11:26:23;;;;;;;6.87;2.83;;;23.20;75.50;;;;;;5051506;28;20435;-52
2021/08/02 11:28:54;;;;;;;7.63;1.80;;;23.20;75.10;;;;;;5033413;28;21075;-52
2021/08/02 11:31:26;;;;;;;3.33;1.73;;;23.20;72.20;;;;;;5051764;28;20944;-52
2021/08/02 11:33:53;;;;;;;3.30;1.97;;;23.10;69.90;;;;;;5051606;28;20934;-52
2021/08/02 11:36:22;;;;;;;3.53;1.80;;;23.00;68.80;;;;;;5051082;28;21006;-52
2021/08/02 11:38:51;;;;;;;4.13;1.47;;;22.90;67.80;;;;;;5051106;28;20459;-53
2021/08/02 11:41:25;;;;;;;4.40;2.33;;;22.80;67.10;;;;;;5050757;28;20493;-52
2021/08/02 11:43:52;;;;;;;4.37;1.93;;;22.70;67.20;;;;;;5051150;28;20431;-51
2021/08/02 11:46:19;;;;;;;4.60;2.30;;;22.60;67.70;;;;;;5051168;28;20469;-52
2021/08/02 11:48:46;;;;;;;3.57;2.77;;;22.70;67.60;;;;;;5050721;28;20803;-52
2021/08/02 11:51:14;;;;;;;4.20;1.77;;;22.50;67.50;;;;;;5050635;28;20450;-51
2021/08/02 11:53:41;;;;;;;4.07;1.63;;;22.50;68.30;;;;;;5051269;28;20434;-50
2021/08/02 11:56:09;;;;;;;5.20;1.93;;;22.50;69.10;;;;;;5033206;28;20471;-51
2021/08/02 11:58:40;;;;;;;5.30;2.00;;;22.50;70.10;;;;;;5032043;28;20564;-52
2021/08/02 12:01:09;;;;;;;3.40;2.10;;;22.60;69.70;;;;;;5051575;28;20926;-51
2021/08/02 12:03:35;;;;;;;5.10;1.60;;;22.60;68.80;;;;;;5051630;28;20518;-52
2021/08/02 12:06:03;;;;;;;6.00;1.80;;;22.70;67.00;;;;;;5050495;28;20440;-52
2021/08/02 12:08:30;;;;;;;4.37;2.40;;;23.00;67.40;;;;;;5051095;28;20840;-52
2021/08/02 12:10:58;;;;;;;3.47;1.73;;;23.10;67.80;;;;;;5051259;28;20526;-52
2021/08/02 12:13:39;;;;;;;16.33;1.87;;;23.10;67.90;;;;;;5051194;28;20958;-53
2021/08/02 12:16:06;;;;;;;11.30;2.27;;;23.20;66.50;;;;;;5051457;28;20991;-51
2021/08/02 12:18:33;;;;;;;5.00;1.93;;;23.30;66.60;;;;;;5050830;28;20455;-52
2021/08/02 12:21:11;;;;;;;3.93;1.70;;;23.30;65.50;;;;;;5051291;28;20434;-52
2021/08/02 12:23:38;;;;;;;3.30;1.97;;;23.40;64.90;;;;;;5051362;28;20760;-51
2021/08/02 12:26:15;;;;;;;4.60;2.17;;;23.40;66.10;;;;;;5050955;28;20451;-52
2021/08/02 12:28:43;;;;;;;2.90;1.63;;;23.40;66.00;;;;;;5050643;28;20546;-52
2021/08/02 12:31:14;;;;;;;8.80;2.30;;;23.40;65.60;;;;;;5032758;28;20838;-51
2021/08/02 12:33:40;;;;;;;14.03;3.03;;;23.40;65.00;;;;;;5050249;28;20434;-51
2021/08/02 12:36:07;;;;;;;5.63;1.80;;;23.50;65.60;;;;;;5050416;28;20510;-52
2021/08/02 12:38:33;;;;;;;19.20;2.70;;;23.60;65.20;;;;;;5050238;28;20466;-51
2021/08/02 12:41:01;;;;;;;4.83;1.90;;;23.70;65.50;;;;;;5050828;28;20439;-51
2021/08/02 12:43:27;;;;;;;2.60;1.77;;;23.80;64.80;;;;;;5050801;28;20517;-53
2021/08/02 12:45:55;;;;;;;4.03;1.50;;;23.90;64.60;;;;;;5050748;28;20427;-52
2021/08/02 12:48:22;;;;;;;3.00;1.70;;;23.70;63.20;;;;;;5050426;28;20962;-52
2021/08/02 12:50:48;;;;;;;2.00;1.37;;;23.70;62.30;;;;;;5050467;28;20447;-52
2021/08/02 12:53:15;;;;;;;3.40;1.67;;;23.60;62.50;;;;;;5050682;28;20753;-52
2021/08/02 12:55:42;;;;;;;5.80;1.43;;;23.50;62.10;;;;;;5050694;28;20482;-51